createdAt,value
2018-04-15T00:00:26.476Z,8.62
2018-04-15T00:02:55.954Z,8.62
2018-04-15T00:05:25.253Z,8.57
2018-04-15T00:07:53.899Z,8.51
2018-04-15T00:10:26.196Z,8.49
2018-04-15T00:12:55.025Z,8.45
2018-04-15T00:15:24.349Z,8.51
2018-04-15T00:17:52.480Z,8.59
2018-04-15T00:20:20.474Z,8.55
2018-04-15T00:22:48.488Z,8.66
2018-04-15T00:25:17.904Z,8.66
2018-04-15T00:27:45.943Z,8.68
2018-04-15T00:30:14.150Z,8.70
2018-04-15T00:32:43.120Z,8.74
2018-04-15T00:35:13.098Z,8.78
2018-04-15T00:37:41.364Z,8.78
2018-04-15T00:40:09.553Z,8.76
2018-04-15T00:42:38.165Z,8.91
2018-04-15T00:45:07.789Z,8.86
2018-04-15T00:47:37.841Z,8.95
2018-04-15T00:50:05.913Z,8.88
2018-04-15T00:52:35.063Z,8.94
2018-04-15T00:55:03.200Z,8.90
2018-04-15T00:57:31.251Z,8.94
2018-04-15T00:59:59.766Z,9.08
2018-04-15T01:02:28.116Z,9.02
2018-04-15T01:04:56.217Z,9.07
2018-04-15T01:07:24.445Z,9.21
2018-04-15T01:09:52.557Z,9.09
2018-04-15T01:12:20.462Z,9.16
2018-04-15T01:14:48.956Z,9.26
2018-04-15T01:17:17.350Z,9.19
2018-04-15T01:19:45.699Z,9.33
2018-04-15T01:22:13.907Z,9.26
2018-04-15T01:24:42.035Z,9.33
2018-04-15T01:27:10.337Z,9.41
2018-04-15T01:29:38.477Z,9.39
2018-04-15T01:32:06.852Z,9.32
2018-04-15T01:34:35.108Z,9.38
2018-04-15T01:37:03.313Z,9.47
2018-04-15T01:39:32.199Z,9.41
2018-04-15T01:42:01.242Z,9.48
2018-04-15T01:44:29.605Z,9.53
2018-04-15T01:46:57.746Z,9.61
2018-04-15T01:49:27.384Z,9.52
2018-04-15T01:51:55.512Z,9.44
2018-04-15T01:54:23.643Z,9.47
2018-04-15T01:56:51.955Z,9.42
2018-04-15T01:59:20.693Z,9.56
2018-04-15T02:01:48.891Z,9.52
2018-04-15T02:04:18.223Z,9.55
2018-04-15T02:06:46.421Z,9.45
2018-04-15T02:09:14.578Z,9.34
2018-04-15T02:11:42.663Z,9.40
2018-04-15T02:14:10.944Z,9.49
2018-04-15T02:16:40.143Z,9.52
2018-04-15T02:19:08.835Z,9.50
2018-04-15T02:21:36.908Z,9.47
2018-04-15T02:24:05.828Z,9.34
2018-04-15T02:26:34.690Z,9.33
2018-04-15T02:29:03.583Z,9.49
2018-04-15T02:31:31.716Z,9.49
2018-04-15T02:34:00.211Z,9.57
2018-04-15T02:36:28.475Z,9.52
2018-04-15T02:38:56.779Z,9.63
2018-04-15T02:41:24.919Z,9.67
2018-04-15T02:43:53.309Z,9.59
2018-04-15T02:46:22.349Z,9.50
2018-04-15T02:48:50.460Z,9.38
2018-04-15T02:51:18.917Z,9.45
2018-04-15T02:53:47.094Z,9.34
2018-04-15T02:56:15.185Z,9.47
2018-04-15T02:58:43.351Z,9.42
2018-04-15T03:01:12.475Z,9.49
2018-04-15T03:03:40.717Z,9.52
2018-04-15T03:06:09.847Z,9.57
2018-04-15T03:08:38.840Z,9.44
2018-04-15T03:11:06.994Z,9.49
2018-04-15T03:13:35.633Z,9.42
2018-04-15T03:16:03.840Z,9.40
2018-04-15T03:18:32.866Z,9.51
2018-04-15T03:21:01.943Z,9.42
2018-04-15T03:23:29.984Z,9.52
2018-04-15T03:25:58.036Z,9.33
2018-04-15T03:28:26.861Z,9.49
2018-04-15T03:30:55.238Z,9.45
2018-04-15T03:33:23.336Z,9.51
2018-04-15T03:35:51.380Z,9.50
2018-04-15T03:38:19.381Z,9.52
2018-04-15T03:40:47.452Z,9.47
2018-04-15T03:43:15.428Z,9.55
2018-04-15T03:45:43.739Z,9.56
2018-04-15T03:48:11.872Z,9.51
2018-04-15T03:50:40.675Z,9.59
2018-04-15T03:53:08.688Z,9.46
2018-04-15T03:55:36.787Z,9.54
2018-04-15T03:58:04.894Z,9.42
2018-04-15T04:00:34.297Z,9.48
2018-04-15T04:03:02.481Z,9.46
2018-04-15T04:05:30.855Z,9.53
2018-04-15T04:07:59.012Z,9.47
2018-04-15T04:10:27.101Z,9.41
2018-04-15T04:12:55.365Z,9.37
2018-04-15T04:15:23.534Z,9.36
2018-04-15T04:18:03.488Z,9.35
2018-04-15T04:20:43.465Z,9.32
2018-04-15T04:23:23.481Z,9.46
2018-04-15T04:26:03.572Z,9.20
2018-04-15T04:28:32.945Z,9.27
2018-04-15T04:31:01.115Z,9.27
2018-04-15T04:33:29.118Z,9.12
2018-04-15T04:35:58.022Z,9.06
2018-04-15T04:38:26.577Z,8.95
2018-04-15T04:40:54.557Z,8.88
2018-04-15T04:43:23.270Z,8.89
2018-04-15T04:45:51.525Z,8.90
2018-04-15T04:48:19.762Z,8.91
2018-04-15T04:50:47.752Z,8.87
2018-04-15T04:53:16.662Z,8.60
2018-04-15T04:55:44.728Z,8.58
2018-04-15T04:58:12.669Z,8.53
2018-04-15T05:00:40.837Z,8.66
2018-04-15T05:03:08.949Z,8.51
2018-04-15T05:05:36.958Z,8.43
2018-04-15T05:08:05.052Z,8.33
2018-04-15T05:10:33.151Z,8.42
2018-04-15T05:13:01.213Z,8.48
2018-04-15T05:15:29.279Z,8.36
2018-04-15T05:17:57.468Z,8.24
2018-04-15T05:20:26.465Z,8.38
2018-04-15T05:22:54.530Z,8.39
2018-04-15T05:25:22.728Z,8.31
2018-04-15T05:27:50.880Z,8.26
2018-04-15T05:30:20.974Z,8.33
2018-04-15T05:32:49.766Z,8.39
2018-04-15T05:35:18.675Z,8.30
2018-04-15T05:37:47.844Z,8.38
2018-04-15T05:40:16.072Z,8.50
2018-04-15T05:42:46.957Z,8.43
2018-04-15T05:45:15.673Z,8.36
2018-04-15T05:47:43.832Z,8.43
2018-04-15T05:50:12.832Z,8.50
2018-04-15T05:52:41.116Z,8.48
2018-04-15T05:55:09.290Z,8.56
2018-04-15T05:57:38.611Z,8.63
2018-04-15T06:00:08.608Z,8.66
2018-04-15T06:02:36.775Z,8.70
2018-04-15T06:05:04.950Z,8.85
2018-04-15T06:07:34.866Z,8.83
2018-04-15T06:10:02.945Z,8.89
2018-04-15T06:12:31.015Z,8.87
2018-04-15T06:14:59.099Z,8.73
2018-04-15T06:17:27.258Z,8.93
2018-04-15T06:19:55.389Z,9.12
2018-04-15T06:22:23.868Z,9.11
2018-04-15T06:24:52.532Z,9.26
2018-04-15T06:27:21.295Z,9.09
2018-04-15T06:29:49.984Z,9.12
2018-04-15T06:32:17.990Z,9.31
2018-04-15T06:34:46.137Z,9.36
2018-04-15T06:37:14.184Z,9.37
2018-04-15T06:39:42.690Z,9.38
2018-04-15T06:42:10.649Z,9.41
2018-04-15T06:44:38.613Z,9.42
2018-04-15T06:47:08.194Z,9.44
2018-04-15T06:49:36.365Z,9.50
2018-04-15T06:52:04.366Z,9.55
2018-04-15T06:54:32.341Z,9.44
2018-04-15T06:57:00.415Z,9.57
2018-04-15T06:59:28.422Z,9.60
2018-04-15T07:01:56.668Z,9.78
2018-04-15T07:04:24.632Z,9.74
2018-04-15T07:06:52.737Z,9.65
2018-04-15T07:09:20.720Z,9.67
2018-04-15T07:11:49.047Z,9.82
2018-04-15T07:14:17.115Z,10.08
2018-04-15T07:16:45.961Z,9.83
2018-04-15T07:19:13.935Z,9.82
2018-04-15T07:21:42.353Z,10.03
2018-04-15T07:24:10.440Z,9.79
2018-04-15T07:26:38.469Z,9.88
2018-04-15T07:29:07.158Z,9.95
2018-04-15T07:31:36.765Z,10.16
2018-04-15T07:34:04.937Z,10.36
2018-04-15T07:36:33.580Z,10.46
2018-04-15T07:39:01.554Z,10.36
2018-04-15T07:41:29.544Z,10.43
2018-04-15T07:43:57.580Z,10.59
2018-04-15T07:46:25.653Z,10.64
2018-04-15T07:48:53.836Z,10.55
2018-04-15T07:51:21.823Z,10.71
2018-04-15T07:53:49.873Z,10.89
2018-04-15T07:56:18.198Z,10.97
2018-04-15T07:58:46.293Z,10.94
2018-04-15T08:01:14.621Z,11.23
2018-04-15T08:03:42.671Z,11.26
2018-04-15T08:06:10.631Z,11.30
2018-04-15T08:08:38.597Z,11.40
2018-04-15T08:11:06.589Z,11.55
2018-04-15T08:13:34.578Z,11.78
2018-04-15T08:16:03.911Z,12.00
2018-04-15T08:18:33.416Z,12.29
2018-04-15T08:21:01.566Z,12.30
2018-04-15T08:23:29.906Z,12.52
2018-04-15T08:25:58.136Z,12.66
2018-04-15T08:28:26.164Z,12.86
2018-04-15T08:30:54.224Z,13.14
2018-04-15T08:33:22.486Z,13.26
2018-04-15T08:35:50.421Z,13.36
2018-04-15T08:38:18.475Z,13.22
2018-04-15T08:40:47.617Z,13.32
2018-04-15T08:43:15.715Z,13.40
2018-04-15T08:45:43.691Z,13.30
2018-04-15T08:48:11.719Z,13.29
2018-04-15T08:50:39.757Z,13.09
2018-04-15T08:53:07.911Z,13.20
2018-04-15T08:55:36.220Z,13.33
2018-04-15T08:58:04.566Z,13.43
2018-04-15T09:00:32.669Z,13.27
2018-04-15T09:03:01.386Z,13.22
2018-04-15T09:05:29.612Z,13.36
2018-04-15T09:07:58.582Z,13.38
2018-04-15T09:10:26.651Z,13.47
2018-04-15T09:12:54.732Z,13.44
2018-04-15T09:15:23.435Z,13.43
2018-04-15T09:17:51.417Z,13.52
2018-04-15T09:20:20.091Z,13.61
2018-04-15T09:22:48.162Z,13.59
2018-04-15T09:25:17.539Z,13.53
2018-04-15T09:27:45.728Z,13.54
2018-04-15T09:30:13.727Z,13.40
2018-04-15T09:32:41.893Z,13.46
2018-04-15T09:35:10.818Z,13.35
2018-04-15T09:37:39.898Z,13.62
2018-04-15T09:40:07.927Z,13.44
2018-04-15T09:42:37.502Z,13.38
2018-04-15T09:45:05.677Z,13.60
2018-04-15T09:47:33.723Z,13.48
2018-04-15T09:50:01.762Z,13.66
2018-04-15T09:52:29.814Z,14.09
2018-04-15T09:54:57.825Z,14.25
2018-04-15T09:57:25.892Z,14.42
2018-04-15T09:59:54.101Z,14.27
2018-04-15T10:02:22.118Z,14.25
2018-04-15T10:04:50.266Z,14.18
2018-04-15T10:07:18.420Z,13.84
2018-04-15T10:09:46.991Z,14.07
2018-04-15T10:12:16.675Z,14.08
2018-04-15T10:14:44.745Z,14.05
2018-04-15T10:17:13.124Z,14.34
2018-04-15T10:19:41.295Z,14.10
2018-04-15T10:22:10.874Z,14.00
2018-04-15T10:24:39.008Z,13.92
2018-04-15T10:27:07.258Z,13.96
2018-04-15T10:29:36.095Z,13.97
2018-04-15T10:32:04.548Z,13.96
2018-04-15T10:34:32.764Z,14.06
2018-04-15T10:37:00.734Z,14.06
2018-04-15T10:39:28.805Z,13.71
2018-04-15T10:41:57.568Z,13.95
2018-04-15T10:44:25.571Z,13.74
2018-04-15T10:46:53.528Z,13.76
2018-04-15T10:49:21.544Z,13.69
2018-04-15T10:51:49.549Z,13.58
2018-04-15T10:54:18.744Z,13.52
2018-04-15T10:56:46.831Z,13.60
2018-04-15T10:59:14.969Z,13.60
2018-04-15T11:01:43.130Z,13.26
2018-04-15T11:04:11.298Z,13.09
2018-04-15T11:06:39.943Z,13.15
2018-04-15T11:09:09.009Z,13.00
2018-04-15T11:11:37.180Z,13.03
2018-04-15T11:14:06.208Z,12.91
2018-04-15T11:16:34.318Z,12.87
2018-04-15T11:19:03.075Z,12.63
2018-04-15T11:21:31.287Z,12.48
2018-04-15T11:23:59.463Z,12.53
2018-04-15T11:26:27.598Z,12.42
2018-04-15T11:28:55.648Z,12.21
2018-04-15T11:31:25.302Z,12.04
2018-04-15T11:33:53.587Z,11.97
2018-04-15T11:36:21.685Z,12.10
2018-04-15T11:38:49.695Z,12.01
2018-04-15T11:41:17.734Z,11.75
2018-04-15T11:43:46.453Z,11.98
2018-04-15T11:46:14.409Z,11.82
2018-04-15T11:48:42.373Z,11.59
2018-04-15T11:51:10.361Z,11.77
2018-04-15T11:53:39.299Z,11.77
2018-04-15T11:56:07.378Z,11.62
2018-04-15T11:58:35.591Z,11.45
2018-04-15T12:01:03.952Z,11.48
2018-04-15T12:03:32.072Z,11.39
2018-04-15T12:06:00.124Z,11.49
2018-04-15T12:08:28.252Z,11.55
2018-04-15T12:10:56.219Z,11.61
2018-04-15T12:13:24.318Z,11.54
2018-04-15T12:15:52.401Z,11.54
2018-04-15T12:18:20.517Z,11.78
2018-04-15T12:20:48.644Z,11.75
2018-04-15T12:23:16.717Z,11.81
2018-04-15T12:25:45.405Z,11.86
2018-04-15T12:28:13.992Z,11.86
2018-04-15T12:30:42.381Z,11.91
2018-04-15T12:33:10.607Z,12.14
2018-04-15T12:35:39.695Z,12.10
2018-04-15T12:38:07.616Z,12.42
2018-04-15T12:40:36.687Z,12.84
2018-04-15T12:43:07.439Z,13.37
2018-04-15T12:45:35.637Z,13.98
2018-04-15T12:48:06.689Z,14.24
2018-04-15T12:50:37.510Z,14.36
2018-04-15T12:53:06.395Z,14.49
2018-04-15T12:55:35.291Z,14.48
2018-04-15T12:58:06.325Z,14.57
2018-04-15T13:00:35.215Z,14.64
2018-04-15T13:03:03.388Z,14.59
2018-04-15T13:05:32.510Z,14.74
2018-04-15T13:08:02.317Z,14.54
2018-04-15T13:10:30.885Z,14.54
2018-04-15T13:12:59.673Z,14.70
2018-04-15T13:15:28.461Z,14.55
2018-04-15T13:17:56.727Z,14.62
2018-04-15T13:20:24.848Z,14.34
2018-04-15T13:22:52.922Z,14.37
2018-04-15T13:25:21.120Z,14.17
2018-04-15T13:27:49.141Z,14.04
2018-04-15T13:30:17.243Z,13.78
2018-04-15T13:32:45.362Z,13.91
2018-04-15T13:35:14.004Z,14.03
2018-04-15T13:37:42.101Z,13.86
2018-04-15T13:40:10.172Z,14.10
2018-04-15T13:42:38.173Z,14.29
2018-04-15T13:45:06.186Z,14.42
2018-04-15T13:47:34.391Z,14.05
2018-04-15T13:50:03.435Z,13.74
2018-04-15T13:52:31.863Z,13.80
2018-04-15T13:55:01.557Z,13.95
2018-04-15T13:57:30.056Z,13.98
2018-04-15T13:59:58.309Z,14.06
2018-04-15T14:02:29.281Z,13.96
2018-04-15T14:04:58.000Z,14.11
2018-04-15T14:07:26.252Z,13.97
2018-04-15T14:09:54.518Z,13.92
2018-04-15T14:12:22.485Z,14.06
2018-04-15T14:14:51.559Z,13.95
2018-04-15T14:17:19.554Z,14.09
2018-04-15T14:19:47.624Z,14.01
2018-04-15T14:22:15.668Z,14.01
2018-04-15T14:24:44.536Z,13.90
2018-04-15T14:27:13.177Z,13.91
2018-04-15T14:29:41.202Z,13.89
2018-04-15T14:32:09.266Z,13.85
2018-04-15T14:34:37.288Z,13.98
2018-04-15T14:37:05.227Z,13.91
2018-04-15T14:39:33.149Z,14.09
2018-04-15T14:42:01.131Z,14.40
2018-04-15T14:44:32.264Z,14.30
2018-04-15T14:47:00.878Z,14.50
2018-04-15T14:49:29.076Z,14.95
2018-04-15T14:51:57.403Z,15.00
2018-04-15T14:54:25.646Z,15.00
2018-04-15T14:56:54.591Z,15.15
2018-04-15T14:59:24.711Z,15.22
2018-04-15T15:01:54.682Z,15.36
2018-04-15T15:04:22.716Z,15.15
2018-04-15T15:06:50.701Z,15.01
2018-04-15T15:09:18.882Z,15.12
2018-04-15T15:11:47.048Z,14.92
2018-04-15T15:14:15.054Z,14.93
2018-04-15T15:16:43.637Z,14.94
2018-04-15T15:19:11.583Z,14.79
2018-04-15T15:21:40.007Z,14.79
2018-04-15T15:24:08.201Z,14.85
2018-04-15T15:26:36.155Z,14.80
2018-04-15T15:29:04.168Z,14.80
2018-04-15T15:31:32.170Z,14.97
2018-04-15T15:34:00.362Z,14.78
2018-04-15T15:36:28.456Z,14.84
2018-04-15T15:38:58.753Z,14.60
2018-04-15T15:41:26.802Z,14.55
2018-04-15T15:43:54.800Z,14.42
2018-04-15T15:46:23.329Z,14.29
2018-04-15T15:48:51.329Z,14.10
2018-04-15T15:51:19.617Z,14.07
2018-04-15T15:53:48.297Z,13.99
2018-04-15T15:56:16.473Z,14.06
2018-04-15T15:58:44.604Z,13.75
2018-04-15T16:01:13.953Z,13.77
2018-04-15T16:03:41.884Z,13.77
2018-04-15T16:06:09.823Z,13.67
2018-04-15T16:08:38.946Z,13.66
2018-04-15T16:11:07.031Z,13.60
2018-04-15T16:13:35.180Z,13.38
2018-04-15T16:16:03.223Z,13.58
2018-04-15T16:18:31.208Z,13.43
2018-04-15T16:20:59.198Z,13.31
2018-04-15T16:23:27.332Z,13.37
2018-04-15T16:25:55.856Z,13.34
2018-04-15T16:28:24.245Z,13.35
2018-04-15T16:30:52.255Z,13.32
2018-04-15T16:33:20.534Z,13.24
2018-04-15T16:35:48.708Z,13.11
2018-04-15T16:38:18.175Z,13.06
2018-04-15T16:40:46.629Z,13.05
2018-04-15T16:43:14.871Z,12.77
2018-04-15T16:45:45.442Z,12.87
2018-04-15T16:48:14.354Z,12.79
2018-04-15T16:50:43.227Z,12.70
2018-04-15T16:53:11.336Z,12.82
2018-04-15T16:55:39.738Z,12.81
2018-04-15T16:58:07.687Z,12.63
2018-04-15T17:00:35.711Z,12.75
2018-04-15T17:03:03.752Z,12.79
2018-04-15T17:05:31.854Z,12.90
2018-04-15T17:08:00.242Z,12.78
2018-04-15T17:10:28.388Z,12.70
2018-04-15T17:12:56.385Z,12.86
2018-04-15T17:15:24.454Z,12.79
2018-04-15T17:17:52.633Z,12.82
2018-04-15T17:20:20.660Z,13.10
2018-04-15T17:22:48.682Z,12.89
2018-04-15T17:25:17.790Z,12.85
2018-04-15T17:27:47.241Z,12.91
2018-04-15T17:30:15.229Z,12.84
2018-04-15T17:32:43.268Z,12.91
2018-04-15T17:35:11.395Z,12.78
2018-04-15T17:37:39.542Z,12.77
2018-04-15T17:40:08.639Z,12.53
2018-04-15T17:42:37.017Z,12.61
2018-04-15T17:45:05.314Z,12.49
2018-04-15T17:47:35.010Z,12.53
2018-04-15T17:50:02.993Z,12.63
2018-04-15T17:52:30.905Z,12.57
2018-04-15T17:54:59.078Z,12.43
2018-04-15T17:57:27.072Z,12.56
2018-04-15T17:59:55.083Z,12.62
2018-04-15T18:02:24.319Z,12.38
2018-04-15T18:04:52.337Z,12.22
2018-04-15T18:07:20.387Z,12.15
2018-04-15T18:09:49.310Z,12.10
2018-04-15T18:12:17.766Z,12.15
2018-04-15T18:14:45.807Z,12.18
2018-04-15T18:17:13.819Z,12.17
2018-04-15T18:19:42.082Z,12.08
2018-04-15T18:22:10.100Z,11.97
2018-04-15T18:24:38.054Z,11.93
2018-04-15T18:27:06.026Z,11.85
2018-04-15T18:29:33.991Z,11.87
2018-04-15T18:32:02.186Z,11.77
2018-04-15T18:34:30.762Z,11.73
2018-04-15T18:36:59.720Z,11.69
2018-04-15T18:39:28.048Z,11.69
2018-04-15T18:41:56.071Z,11.70
2018-04-15T18:44:24.416Z,11.74
2018-04-15T18:46:52.442Z,11.68
2018-04-15T18:49:20.453Z,11.61
2018-04-15T18:51:48.744Z,11.56
2018-04-15T18:54:16.834Z,11.56
2018-04-15T18:56:45.011Z,11.53
2018-04-15T18:59:13.060Z,11.36
2018-04-15T19:01:41.157Z,11.28
2018-04-15T19:04:09.265Z,11.37
2018-04-15T19:06:38.433Z,11.25
2018-04-15T19:09:06.467Z,11.18
2018-04-15T19:11:35.496Z,11.13
2018-04-15T19:14:04.428Z,11.05
2018-04-15T19:16:32.793Z,11.00
2018-04-15T19:19:00.915Z,11.03
2018-04-15T19:21:29.313Z,10.99
2018-04-15T19:23:57.303Z,10.96
2018-04-15T19:26:28.448Z,10.80
2018-04-15T19:28:57.089Z,10.72
2018-04-15T19:31:25.469Z,10.74
2018-04-15T19:33:54.700Z,10.72
2018-04-15T19:36:22.897Z,10.60
2018-04-15T19:38:51.624Z,10.64
2018-04-15T19:41:19.753Z,10.59
2018-04-15T19:43:47.840Z,10.58
2018-04-15T19:46:16.589Z,10.50
2018-04-15T19:48:45.905Z,10.44
2018-04-15T19:51:14.034Z,10.37
2018-04-15T19:53:42.154Z,10.52
2018-04-15T19:56:10.586Z,10.38
2018-04-15T19:58:40.063Z,10.36
2018-04-15T20:01:08.144Z,10.38
2018-04-15T20:03:36.221Z,10.30
2018-04-15T20:06:04.862Z,10.28
2018-04-15T20:08:32.829Z,10.25
2018-04-15T20:11:01.059Z,10.22
2018-04-15T20:13:29.178Z,10.30
2018-04-15T20:15:57.723Z,10.16
2018-04-15T20:18:27.442Z,10.22
2018-04-15T20:20:55.674Z,10.19
2018-04-15T20:23:24.160Z,10.11
2018-04-15T20:25:53.991Z,10.19
2018-04-15T20:28:22.061Z,10.11
2018-04-15T20:30:51.358Z,10.09
2018-04-15T20:33:19.416Z,10.07
2018-04-15T20:35:47.432Z,10.10
2018-04-15T20:38:15.510Z,10.07
2018-04-15T20:40:43.401Z,9.93
2018-04-15T20:43:11.424Z,9.98
2018-04-15T20:45:39.381Z,9.97
2018-04-15T20:48:07.374Z,9.86
2018-04-15T20:50:35.313Z,9.90
2018-04-15T20:53:03.236Z,9.81
2018-04-15T20:55:31.156Z,9.82
2018-04-15T20:57:59.784Z,9.72
2018-04-15T21:00:27.704Z,9.77
2018-04-15T21:02:55.652Z,9.78
2018-04-15T21:05:23.558Z,9.69
2018-04-15T21:07:51.479Z,9.66
2018-04-15T21:10:19.423Z,9.64
2018-04-15T21:12:48.080Z,9.71
2018-04-15T21:15:16.132Z,9.59
2018-04-15T21:17:44.914Z,9.55
2018-04-15T21:20:12.839Z,9.54
2018-04-15T21:22:40.793Z,9.60
2018-04-15T21:25:08.780Z,9.52
2018-04-15T21:27:36.818Z,9.50
2018-04-15T21:30:04.783Z,9.51
2018-04-15T21:32:32.752Z,9.50
2018-04-15T21:35:00.686Z,9.48
2018-04-15T21:37:29.252Z,9.47
2018-04-15T21:39:57.627Z,9.46
2018-04-15T21:42:25.594Z,9.40
2018-04-15T21:44:53.567Z,9.33
2018-04-15T21:47:22.031Z,9.41
2018-04-15T21:49:50.028Z,9.45
2018-04-15T21:52:18.181Z,9.50
2018-04-15T21:54:46.169Z,9.37
2018-04-15T21:57:14.084Z,9.36
2018-04-15T21:59:42.027Z,9.29
2018-04-15T22:02:10.016Z,9.26
2018-04-15T22:04:37.965Z,9.11
2018-04-15T22:07:05.909Z,9.03
2018-04-15T22:09:34.169Z,9.07
2018-04-15T22:12:13.849Z,9.00
2018-04-15T22:14:42.116Z,8.96
2018-04-15T22:17:10.108Z,8.94
2018-04-15T22:19:38.668Z,8.94
2018-04-15T22:22:06.606Z,8.94
2018-04-15T22:24:34.580Z,8.93
2018-04-15T22:27:02.657Z,8.92
2018-04-15T22:29:30.618Z,9.08
2018-04-15T22:31:58.543Z,9.08
2018-04-15T22:34:27.152Z,9.18
2018-04-15T22:36:55.097Z,9.17
2018-04-15T22:39:23.065Z,9.11
2018-04-15T22:41:52.042Z,9.41
2018-04-15T22:44:20.031Z,9.25
2018-04-15T22:46:48.052Z,9.23
2018-04-15T22:49:21.673Z,9.27
2018-04-15T22:51:49.646Z,9.31
2018-04-15T22:54:17.641Z,9.59
2018-04-15T22:56:45.653Z,9.65
2018-04-15T22:59:13.734Z,9.59
2018-04-15T23:01:41.716Z,9.54
2018-04-15T23:04:09.682Z,9.31
2018-04-15T23:06:37.693Z,9.26
2018-04-15T23:09:05.771Z,9.22
2018-04-15T23:11:33.752Z,9.17
2018-04-15T23:14:01.829Z,9.12
2018-04-15T23:16:29.787Z,9.05
2018-04-15T23:18:57.760Z,9.04
2018-04-15T23:21:25.776Z,9.08
2018-04-15T23:23:53.694Z,9.02
2018-04-15T23:26:21.656Z,9.03
2018-04-15T23:28:49.648Z,9.03
2018-04-15T23:31:17.664Z,9.02
2018-04-15T23:33:45.608Z,9.04
2018-04-15T23:36:13.542Z,9.02
2018-04-15T23:38:41.505Z,9.00
2018-04-15T23:41:09.425Z,8.95
2018-04-15T23:43:37.352Z,8.89
2018-04-15T23:46:05.907Z,9.03
2018-04-15T23:48:33.831Z,8.97
2018-04-15T23:51:02.605Z,8.91
2018-04-15T23:53:30.945Z,8.92
2018-04-15T23:55:59.068Z,8.92
2018-04-15T23:58:27.304Z,9.01
